KMIB/MIB METAR and TAF weather

Enter ICAO airport designator
Station Type Date Time Source
KMIB METAR 2019/02/20 23:00 UTC NOAA

KMIB 202300Z 33007KT 9SM -SN FEW010 OVC050 M12/M14 A2969 RMK SLP100 P0000 60000 T11171145 11102 21144 $


Station Type Date Time Source
KMIB Decoded METAR 2019/02/20 23:00 UTC NOAA

Minot Air Force Base, ND, United States (KMIB) 48-25N 101-21W
Feb 20, 2019 - 06:00 PM EST / 2019.02.20 2300 UTC
Wind: from the NNW (330 degrees) at 8 MPH (7 KT):0
Visibility: 9 mile(s):0
Sky conditions: overcast
Weather: light snow
Precipitation last hour: A trace
Temperature: 10.9 F (-11.7 C)
Windchill: 0 F (-18 C):1
Dew Point: 5.9 F (-14.5 C)
Relative Humidity: 79%
Pressure (altimeter): 29.69 in. Hg (1005 hPa)
ob: KMIB 202300Z 33007KT 9SM -SN FEW010 OVC050 M12/M14 A2969 RMK SLP100 P0000 60000 T11171145 11102 21144
cycle: 23

Station Type Date Time Source
KMIB TAF 2019/02/20 14:51 UTC NOAA

TAF TAF
AMD KMIB 201440Z 2014/2115 18006KT 9999 FEW005 BKN060 620605 QNH2966INS
BECMG 2015/2017 12009KT 9999 BKN015 OVC020 620159 QNH2968INS
BECMG 2019/2020 18009KT 8000 -SN OVC009 620099 QNH2965INS
BECMG 2105/2106 VRB06KT 3200 -SN SCT009 OVC015 620159 QNH2978INS
BECMG 2107/2109 VRB06KT 4800 -SN SCT015 OVC020 620206 QNH2978INS TXM07/2020Z TNM17/2014Z


Example: see airport list